sensor_id;sensor_type;location;lat;lon;timestamp;temperature;humidity
68385;DHT22;55336;43.062;25.626;2024-02-16T00:00:25;6.00;99.90
68385;DHT22;55336;43.062;25.626;2024-02-16T00:02:51;6.00;99.90
68385;DHT22;55336;43.062;25.626;2024-02-16T00:05:18;6.00;99.90
68385;DHT22;55336;43.062;25.626;2024-02-16T00:07:44;6.00;99.90
68385;DHT22;55336;43.062;25.626;2024-02-16T00:10:10;6.00;99.90
68385;DHT22;55336;43.062;25.626;2024-02-16T00:12:37;6.00;99.90
68385;DHT22;55336;43.062;25.626;2024-02-16T00:15:06;6.00;99.90
68385;DHT22;55336;43.062;25.626;2024-02-16T00:17:32;5.90;99.90
68385;DHT22;55336;43.062;25.626;2024-02-16T00:19:59;5.90;99.90
68385;DHT22;55336;43.062;25.626;2024-02-16T00:22:25;5.90;99.90
68385;DHT22;55336;43.062;25.626;2024-02-16T00:24:54;5.90;99.90
68385;DHT22;55336;43.062;25.626;2024-02-16T00:27:20;5.90;99.90
68385;DHT22;55336;43.062;25.626;2024-02-16T00:29:46;5.90;99.90
68385;DHT22;55336;43.062;25.626;2024-02-16T00:32:14;5.90;99.90
68385;DHT22;55336;43.062;25.626;2024-02-16T00:34:40;5.90;99.90
68385;DHT22;55336;43.062;25.626;2024-02-16T00:37:07;5.80;99.90
68385;DHT22;55336;43.062;25.626;2024-02-16T00:39:38;5.80;99.90
68385;DHT22;55336;43.062;25.626;2024-02-16T00:42:07;5.80;99.90
68385;DHT22;55336;43.062;25.626;2024-02-16T00:44:33;5.80;99.90
68385;DHT22;55336;43.062;25.626;2024-02-16T00:47:00;5.80;99.90
68385;DHT22;55336;43.062;25.626;2024-02-16T00:49:26;5.80;99.90
68385;DHT22;55336;43.062;25.626;2024-02-16T00:51:53;5.90;99.90
68385;DHT22;55336;43.062;25.626;2024-02-16T00:54:19;5.80;99.90
68385;DHT22;55336;43.062;25.626;2024-02-16T00:56:45;5.90;99.90
68385;DHT22;55336;43.062;25.626;2024-02-16T00:59:12;5.80;99.90
68385;DHT22;55336;43.062;25.626;2024-02-16T01:01:38;5.90;99.90
68385;DHT22;55336;43.062;25.626;2024-02-16T01:04:05;5.80;99.90
68385;DHT22;55336;43.062;25.626;2024-02-16T01:06:32;5.90;99.90
68385;DHT22;55336;43.062;25.626;2024-02-16T01:08:58;5.90;99.90
68385;DHT22;55336;43.062;25.626;2024-02-16T01:11:24;5.80;99.90
68385;DHT22;55336;43.062;25.626;2024-02-16T01:13:51;5.90;99.90
68385;DHT22;55336;43.062;25.626;2024-02-16T01:16:19;5.90;99.90
68385;DHT22;55336;43.062;25.626;2024-02-16T01:18:45;5.90;99.90
68385;DHT22;55336;43.062;25.626;2024-02-16T01:21:11;5.80;99.90
68385;DHT22;55336;43.062;25.626;2024-02-16T01:23:37;5.80;99.90
68385;DHT22;55336;43.062;25.626;2024-02-16T01:26:02;5.80;99.90
68385;DHT22;55336;43.062;25.626;2024-02-16T01:28:29;5.80;99.90
68385;DHT22;55336;43.062;25.626;2024-02-16T01:30:55;5.80;99.90
68385;DHT22;55336;43.062;25.626;2024-02-16T01:33:22;5.80;99.90
68385;DHT22;55336;43.062;25.626;2024-02-16T01:35:48;5.90;99.90
68385;DHT22;55336;43.062;25.626;2024-02-16T01:38:14;5.80;99.90
68385;DHT22;55336;43.062;25.626;2024-02-16T01:40:40;5.80;99.90
68385;DHT22;55336;43.062;25.626;2024-02-16T01:43:06;5.80;99.90
68385;DHT22;55336;43.062;25.626;2024-02-16T01:45:32;5.80;99.90
68385;DHT22;55336;43.062;25.626;2024-02-16T01:47:58;5.80;99.90
68385;DHT22;55336;43.062;25.626;2024-02-16T01:50:25;5.80;99.90
68385;DHT22;55336;43.062;25.626;2024-02-16T01:52:51;5.80;99.90
68385;DHT22;55336;43.062;25.626;2024-02-16T01:55:18;5.80;99.90
68385;DHT22;55336;43.062;25.626;2024-02-16T01:57:47;5.80;99.90
68385;DHT22;55336;43.062;25.626;2024-02-16T02:00:15;5.80;99.90
68385;DHT22;55336;43.062;25.626;2024-02-16T02:02:46;5.80;99.90
68385;DHT22;55336;43.062;25.626;2024-02-16T02:05:13;5.80;99.90
68385;DHT22;55336;43.062;25.626;2024-02-16T02:07:41;5.80;99.90
68385;DHT22;55336;43.062;25.626;2024-02-16T02:10:08;5.80;99.90
68385;DHT22;55336;43.062;25.626;2024-02-16T02:12:34;5.80;99.90
68385;DHT22;55336;43.062;25.626;2024-02-16T02:15:00;5.80;99.90
68385;DHT22;55336;43.062;25.626;2024-02-16T02:17:26;5.70;99.90
68385;DHT22;55336;43.062;25.626;2024-02-16T02:19:52;5.80;99.90
68385;DHT22;55336;43.062;25.626;2024-02-16T02:22:19;5.70;99.90
68385;DHT22;55336;43.062;25.626;2024-02-16T02:24:46;5.80;99.90
68385;DHT22;55336;43.062;25.626;2024-02-16T02:27:13;5.70;99.90
68385;DHT22;55336;43.062;25.626;2024-02-16T02:29:39;5.70;99.90
68385;DHT22;55336;43.062;25.626;2024-02-16T02:32:05;5.70;99.90
68385;DHT22;55336;43.062;25.626;2024-02-16T02:34:31;5.70;99.90
68385;DHT22;55336;43.062;25.626;2024-02-16T02:36:57;5.70;99.90
68385;DHT22;55336;43.062;25.626;2024-02-16T02:39:23;5.70;99.90
68385;DHT22;55336;43.062;25.626;2024-02-16T02:41:49;5.70;99.90
68385;DHT22;55336;43.062;25.626;2024-02-16T02:44:15;5.70;99.90
68385;DHT22;55336;43.062;25.626;2024-02-16T02:46:41;5.70;99.90
68385;DHT22;55336;43.062;25.626;2024-02-16T02:49:07;5.70;99.90
68385;DHT22;55336;43.062;25.626;2024-02-16T02:51:34;5.70;99.90
68385;DHT22;55336;43.062;25.626;2024-02-16T02:54:00;5.70;99.90
68385;DHT22;55336;43.062;25.626;2024-02-16T02:56:26;5.80;99.90
68385;DHT22;55336;43.062;25.626;2024-02-16T02:58:52;5.70;99.90
68385;DHT22;55336;43.062;25.626;2024-02-16T03:01:18;5.70;99.90
68385;DHT22;55336;43.062;25.626;2024-02-16T03:03:46;5.70;99.90
68385;DHT22;55336;43.062;25.626;2024-02-16T03:06:12;5.70;99.90
68385;DHT22;55336;43.062;25.626;2024-02-16T03:08:39;5.80;99.90
68385;DHT22;55336;43.062;25.626;2024-02-16T03:11:05;5.70;99.90
68385;DHT22;55336;43.062;25.626;2024-02-16T03:13:34;5.70;99.90
68385;DHT22;55336;43.062;25.626;2024-02-16T03:16:00;5.70;99.90
68385;DHT22;55336;43.062;25.626;2024-02-16T03:18:31;5.70;99.90
68385;DHT22;55336;43.062;25.626;2024-02-16T03:20:58;5.70;99.90
68385;DHT22;55336;43.062;25.626;2024-02-16T03:23:24;5.70;99.90
68385;DHT22;55336;43.062;25.626;2024-02-16T03:25:50;5.70;99.90
68385;DHT22;55336;43.062;25.626;2024-02-16T03:28:16;5.70;99.90
68385;DHT22;55336;43.062;25.626;2024-02-16T03:30:42;5.70;99.90
68385;DHT22;55336;43.062;25.626;2024-02-16T03:33:09;5.70;99.90
68385;DHT22;55336;43.062;25.626;2024-02-16T03:35:36;5.70;99.90
68385;DHT22;55336;43.062;25.626;2024-02-16T03:38:02;5.70;99.90
68385;DHT22;55336;43.062;25.626;2024-02-16T03:40:29;5.70;99.90
68385;DHT22;55336;43.062;25.626;2024-02-16T03:42:55;5.70;99.90
68385;DHT22;55336;43.062;25.626;2024-02-16T03:45:21;5.70;99.90
68385;DHT22;55336;43.062;25.626;2024-02-16T03:47:47;5.70;99.90
68385;DHT22;55336;43.062;25.626;2024-02-16T03:50:18;5.70;99.90
68385;DHT22;55336;43.062;25.626;2024-02-16T03:52:44;5.70;99.90
68385;DHT22;55336;43.062;25.626;2024-02-16T03:55:10;5.70;99.90
68385;DHT22;55336;43.062;25.626;2024-02-16T03:57:38;5.70;99.90
68385;DHT22;55336;43.062;25.626;2024-02-16T04:00:04;5.60;99.90
68385;DHT22;55336;43.062;25.626;2024-02-16T04:02:31;5.70;99.90
68385;DHT22;55336;43.062;25.626;2024-02-16T04:04:57;5.60;99.90
68385;DHT22;55336;43.062;25.626;2024-02-16T04:07:24;5.60;99.90
68385;DHT22;55336;43.062;25.626;2024-02-16T04:09:50;5.70;99.90
68385;DHT22;55336;43.062;25.626;2024-02-16T04:12:16;5.60;99.90
68385;DHT22;55336;43.062;25.626;2024-02-16T04:14:42;5.60;99.90
68385;DHT22;55336;43.062;25.626;2024-02-16T04:17:09;5.60;99.90
68385;DHT22;55336;43.062;25.626;2024-02-16T04:19:37;5.60;99.90
68385;DHT22;55336;43.062;25.626;2024-02-16T04:22:03;5.60;99.90
68385;DHT22;55336;43.062;25.626;2024-02-16T04:24:29;5.60;99.90
68385;DHT22;55336;43.062;25.626;2024-02-16T04:26:55;5.60;99.90
68385;DHT22;55336;43.062;25.626;2024-02-16T04:29:22;5.60;99.90
68385;DHT22;55336;43.062;25.626;2024-02-16T04:31:48;5.60;99.90
68385;DHT22;55336;43.062;25.626;2024-02-16T04:34:15;5.60;99.90
68385;DHT22;55336;43.062;25.626;2024-02-16T04:36:41;5.60;99.90
68385;DHT22;55336;43.062;25.626;2024-02-16T04:39:10;5.60;99.90
68385;DHT22;55336;43.062;25.626;2024-02-16T04:41:37;5.60;99.90
68385;DHT22;55336;43.062;25.626;2024-02-16T04:44:04;5.60;99.90
68385;DHT22;55336;43.062;25.626;2024-02-16T04:46:30;5.60;99.90
68385;DHT22;55336;43.062;25.626;2024-02-16T04:48:55;5.60;99.90
68385;DHT22;55336;43.062;25.626;2024-02-16T04:51:22;5.60;99.90
68385;DHT22;55336;43.062;25.626;2024-02-16T04:53:48;5.60;99.90
68385;DHT22;55336;43.062;25.626;2024-02-16T04:56:16;5.60;99.90
68385;DHT22;55336;43.062;25.626;2024-02-16T04:58:42;5.60;99.90
68385;DHT22;55336;43.062;25.626;2024-02-16T05:01:10;5.60;99.90
68385;DHT22;55336;43.062;25.626;2024-02-16T05:03:35;5.60;99.90
68385;DHT22;55336;43.062;25.626;2024-02-16T05:06:02;5.60;99.90
68385;DHT22;55336;43.062;25.626;2024-02-16T05:08:28;5.60;99.90
68385;DHT22;55336;43.062;25.626;2024-02-16T05:10:54;5.70;99.90
68385;DHT22;55336;43.062;25.626;2024-02-16T05:13:20;5.60;99.90
68385;DHT22;55336;43.062;25.626;2024-02-16T05:15:46;5.60;99.90
68385;DHT22;55336;43.062;25.626;2024-02-16T05:18:14;5.60;99.90
68385;DHT22;55336;43.062;25.626;2024-02-16T05:20:41;5.60;99.90
68385;DHT22;55336;43.062;25.626;2024-02-16T05:23:06;5.60;99.90
68385;DHT22;55336;43.062;25.626;2024-02-16T05:25:34;5.60;99.90
68385;DHT22;55336;43.062;25.626;2024-02-16T05:28:00;5.60;99.90
68385;DHT22;55336;43.062;25.626;2024-02-16T05:30:27;5.60;99.90
68385;DHT22;55336;43.062;25.626;2024-02-16T05:32:53;5.60;99.90
68385;DHT22;55336;43.062;25.626;2024-02-16T05:35:24;5.70;99.90
68385;DHT22;55336;43.062;25.626;2024-02-16T05:37:53;5.60;99.90
68385;DHT22;55336;43.062;25.626;2024-02-16T05:40:19;5.70;99.90
68385;DHT22;55336;43.062;25.626;2024-02-16T05:42:51;5.70;99.90
68385;DHT22;55336;43.062;25.626;2024-02-16T05:45:17;5.70;99.90
68385;DHT22;55336;43.062;25.626;2024-02-16T05:47:47;5.70;99.90
68385;DHT22;55336;43.062;25.626;2024-02-16T05:50:13;5.80;99.90
68385;DHT22;55336;43.062;25.626;2024-02-16T05:52:41;5.80;99.90
68385;DHT22;55336;43.062;25.626;2024-02-16T05:55:08;5.80;99.90
68385;DHT22;55336;43.062;25.626;2024-02-16T05:57:34;5.90;99.90
68385;DHT22;55336;43.062;25.626;2024-02-16T06:00:01;5.90;99.90
68385;DHT22;55336;43.062;25.626;2024-02-16T06:02:30;5.90;99.90
68385;DHT22;55336;43.062;25.626;2024-02-16T06:04:56;6.00;99.90
68385;DHT22;55336;43.062;25.626;2024-02-16T06:07:23;6.00;99.90
68385;DHT22;55336;43.062;25.626;2024-02-16T06:09:49;6.10;99.90
68385;DHT22;55336;43.062;25.626;2024-02-16T06:12:15;6.10;99.90
68385;DHT22;55336;43.062;25.626;2024-02-16T06:14:42;6.20;99.90
68385;DHT22;55336;43.062;25.626;2024-02-16T06:17:08;6.20;99.90
68385;DHT22;55336;43.062;25.626;2024-02-16T06:19:35;6.30;99.90
68385;DHT22;55336;43.062;25.626;2024-02-16T06:22:01;6.40;99.90
68385;DHT22;55336;43.062;25.626;2024-02-16T06:24:27;6.50;99.90
68385;DHT22;55336;43.062;25.626;2024-02-16T06:26:53;6.60;99.90
68385;DHT22;55336;43.062;25.626;2024-02-16T06:29:20;6.70;99.90
68385;DHT22;55336;43.062;25.626;2024-02-16T06:31:46;6.70;99.90
68385;DHT22;55336;43.062;25.626;2024-02-16T06:34:14;6.80;99.90
68385;DHT22;55336;43.062;25.626;2024-02-16T06:36:40;7.00;99.90
68385;DHT22;55336;43.062;25.626;2024-02-16T06:39:06;7.10;99.90
68385;DHT22;55336;43.062;25.626;2024-02-16T06:41:32;7.20;99.90
68385;DHT22;55336;43.062;25.626;2024-02-16T06:43:58;7.30;99.90
68385;DHT22;55336;43.062;25.626;2024-02-16T06:46:24;7.30;99.90
68385;DHT22;55336;43.062;25.626;2024-02-16T06:48:50;7.40;99.90
68385;DHT22;55336;43.062;25.626;2024-02-16T06:51:17;7.50;99.90
68385;DHT22;55336;43.062;25.626;2024-02-16T06:53:44;7.60;99.90
68385;DHT22;55336;43.062;25.626;2024-02-16T06:56:09;7.70;99.90
68385;DHT22;55336;43.062;25.626;2024-02-16T06:58:35;7.80;99.90
68385;DHT22;55336;43.062;25.626;2024-02-16T07:01:02;7.90;99.90
68385;DHT22;55336;43.062;25.626;2024-02-16T07:03:29;8.00;99.90
68385;DHT22;55336;43.062;25.626;2024-02-16T07:05:55;8.10;99.90
68385;DHT22;55336;43.062;25.626;2024-02-16T07:08:21;8.20;99.90
68385;DHT22;55336;43.062;25.626;2024-02-16T07:10:49;8.30;99.90
68385;DHT22;55336;43.062;25.626;2024-02-16T07:13:17;8.40;99.90
68385;DHT22;55336;43.062;25.626;2024-02-16T07:15:43;8.60;99.90
68385;DHT22;55336;43.062;25.626;2024-02-16T07:18:09;8.70;99.90
68385;DHT22;55336;43.062;25.626;2024-02-16T07:20:35;8.80;99.90
68385;DHT22;55336;43.062;25.626;2024-02-16T07:23:02;8.90;99.90
68385;DHT22;55336;43.062;25.626;2024-02-16T07:25:28;9.00;99.90
68385;DHT22;55336;43.062;25.626;2024-02-16T07:27:54;9.10;99.90
68385;DHT22;55336;43.062;25.626;2024-02-16T07:30:20;9.10;99.90
68385;DHT22;55336;43.062;25.626;2024-02-16T07:32:49;9.20;99.90
68385;DHT22;55336;43.062;25.626;2024-02-16T07:35:16;9.30;99.90
68385;DHT22;55336;43.062;25.626;2024-02-16T07:37:42;9.30;99.90
68385;DHT22;55336;43.062;25.626;2024-02-16T07:40:09;9.40;99.90
68385;DHT22;55336;43.062;25.626;2024-02-16T07:42:38;9.50;99.90
68385;DHT22;55336;43.062;25.626;2024-02-16T07:45:06;9.60;99.90
68385;DHT22;55336;43.062;25.626;2024-02-16T07:47:32;9.70;99.90
68385;DHT22;55336;43.062;25.626;2024-02-16T07:49:57;9.60;99.90
68385;DHT22;55336;43.062;25.626;2024-02-16T07:52:23;9.70;99.90
68385;DHT22;55336;43.062;25.626;2024-02-16T07:54:49;9.80;99.90
68385;DHT22;55336;43.062;25.626;2024-02-16T07:57:17;9.80;99.90
68385;DHT22;55336;43.062;25.626;2024-02-16T07:59:43;9.80;99.90
68385;DHT22;55336;43.062;25.626;2024-02-16T08:02:10;9.90;99.90
68385;DHT22;55336;43.062;25.626;2024-02-16T08:04:41;9.80;99.90
68385;DHT22;55336;43.062;25.626;2024-02-16T08:07:07;9.90;99.90
68385;DHT22;55336;43.062;25.626;2024-02-16T08:09:33;9.90;99.90
68385;DHT22;55336;43.062;25.626;2024-02-16T08:11:59;9.90;99.90
68385;DHT22;55336;43.062;25.626;2024-02-16T08:14:28;9.80;99.90
68385;DHT22;55336;43.062;25.626;2024-02-16T08:16:53;9.90;99.90
68385;DHT22;55336;43.062;25.626;2024-02-16T08:19:19;10.00;99.90
68385;DHT22;55336;43.062;25.626;2024-02-16T08:21:45;10.10;99.90
68385;DHT22;55336;43.062;25.626;2024-02-16T08:24:11;10.30;99.90
68385;DHT22;55336;43.062;25.626;2024-02-16T08:26:38;10.30;99.90
68385;DHT22;55336;43.062;25.626;2024-02-16T08:29:03;10.00;99.90
68385;DHT22;55336;43.062;25.626;2024-02-16T08:31:29;10.30;99.90
68385;DHT22;55336;43.062;25.626;2024-02-16T08:33:55;10.50;99.90
68385;DHT22;55336;43.062;25.626;2024-02-16T08:36:21;10.50;99.90
68385;DHT22;55336;43.062;25.626;2024-02-16T08:38:53;10.50;99.90
68385;DHT22;55336;43.062;25.626;2024-02-16T08:41:22;10.60;99.90
68385;DHT22;55336;43.062;25.626;2024-02-16T08:43:50;10.60;99.90
68385;DHT22;55336;43.062;25.626;2024-02-16T08:46:16;10.60;99.90
68385;DHT22;55336;43.062;25.626;2024-02-16T08:48:44;10.40;99.90
68385;DHT22;55336;43.062;25.626;2024-02-16T08:51:11;10.30;99.90
68385;DHT22;55336;43.062;25.626;2024-02-16T08:53:37;10.30;99.90
68385;DHT22;55336;43.062;25.626;2024-02-16T08:56:02;10.40;99.90
68385;DHT22;55336;43.062;25.626;2024-02-16T08:58:28;10.30;99.90
68385;DHT22;55336;43.062;25.626;2024-02-16T09:00:54;10.30;99.90
68385;DHT22;55336;43.062;25.626;2024-02-16T09:03:20;10.30;99.90
68385;DHT22;55336;43.062;25.626;2024-02-16T09:05:46;10.30;99.90
68385;DHT22;55336;43.062;25.626;2024-02-16T09:08:13;10.40;99.90
68385;DHT22;55336;43.062;25.626;2024-02-16T09:10:39;10.50;99.90
68385;DHT22;55336;43.062;25.626;2024-02-16T09:13:07;10.60;99.90
68385;DHT22;55336;43.062;25.626;2024-02-16T09:15:34;10.60;99.90
68385;DHT22;55336;43.062;25.626;2024-02-16T09:18:00;10.70;99.90
68385;DHT22;55336;43.062;25.626;2024-02-16T09:20:26;10.70;99.90
68385;DHT22;55336;43.062;25.626;2024-02-16T09:22:52;10.80;99.90
68385;DHT22;55336;43.062;25.626;2024-02-16T09:25:19;10.90;99.90
68385;DHT22;55336;43.062;25.626;2024-02-16T09:27:44;11.00;99.90
68385;DHT22;55336;43.062;25.626;2024-02-16T09:30:13;10.80;99.90
68385;DHT22;55336;43.062;25.626;2024-02-16T09:32:40;10.90;99.90
68385;DHT22;55336;43.062;25.626;2024-02-16T09:35:07;11.00;99.90
68385;DHT22;55336;43.062;25.626;2024-02-16T09:37:34;11.10;99.90
68385;DHT22;55336;43.062;25.626;2024-02-16T09:40:00;11.10;99.90
68385;DHT22;55336;43.062;25.626;2024-02-16T09:42:26;11.00;99.90
68385;DHT22;55336;43.062;25.626;2024-02-16T09:44:54;11.10;99.90
68385;DHT22;55336;43.062;25.626;2024-02-16T09:47:22;11.10;99.90
68385;DHT22;55336;43.062;25.626;2024-02-16T09:49:49;11.00;99.90
68385;DHT22;55336;43.062;25.626;2024-02-16T09:52:14;11.00;99.90
68385;DHT22;55336;43.062;25.626;2024-02-16T09:54:44;11.30;99.90
68385;DHT22;55336;43.062;25.626;2024-02-16T09:57:09;11.30;99.90
68385;DHT22;55336;43.062;25.626;2024-02-16T09:59:36;11.40;99.90
68385;DHT22;55336;43.062;25.626;2024-02-16T10:02:02;11.20;99.90
68385;DHT22;55336;43.062;25.626;2024-02-16T10:04:31;11.00;99.90
68385;DHT22;55336;43.062;25.626;2024-02-16T10:06:58;11.10;99.90
68385;DHT22;55336;43.062;25.626;2024-02-16T10:09:28;11.30;99.90
68385;DHT22;55336;43.062;25.626;2024-02-16T10:12:00;11.20;99.90
68385;DHT22;55336;43.062;25.626;2024-02-16T10:14:26;11.30;99.90
68385;DHT22;55336;43.062;25.626;2024-02-16T10:17:03;11.40;99.90
68385;DHT22;55336;43.062;25.626;2024-02-16T10:19:32;11.60;99.90
68385;DHT22;55336;43.062;25.626;2024-02-16T10:22:10;11.60;99.90
68385;DHT22;55336;43.062;25.626;2024-02-16T10:24:36;11.60;99.90
68385;DHT22;55336;43.062;25.626;2024-02-16T10:27:05;11.60;99.90
68385;DHT22;55336;43.062;25.626;2024-02-16T10:29:32;11.60;99.90
68385;DHT22;55336;43.062;25.626;2024-02-16T10:31:59;11.60;99.90
68385;DHT22;55336;43.062;25.626;2024-02-16T10:34:26;11.60;99.90
68385;DHT22;55336;43.062;25.626;2024-02-16T10:36:54;11.60;99.90
68385;DHT22;55336;43.062;25.626;2024-02-16T10:39:20;11.60;99.90
68385;DHT22;55336;43.062;25.626;2024-02-16T10:41:47;11.60;99.90
68385;DHT22;55336;43.062;25.626;2024-02-16T10:44:17;11.60;99.90
68385;DHT22;55336;43.062;25.626;2024-02-16T10:46:42;11.60;99.90
68385;DHT22;55336;43.062;25.626;2024-02-16T10:49:08;11.60;99.90
68385;DHT22;55336;43.062;25.626;2024-02-16T10:51:50;11.60;99.90
68385;DHT22;55336;43.062;25.626;2024-02-16T10:54:25;11.40;99.90
68385;DHT22;55336;43.062;25.626;2024-02-16T10:56:53;11.10;99.90
68385;DHT22;55336;43.062;25.626;2024-02-16T10:59:20;11.20;99.90
68385;DHT22;55336;43.062;25.626;2024-02-16T11:01:47;11.20;99.90
68385;DHT22;55336;43.062;25.626;2024-02-16T11:04:21;11.00;99.90
68385;DHT22;55336;43.062;25.626;2024-02-16T11:06:57;10.70;99.90
68385;DHT22;55336;43.062;25.626;2024-02-16T11:09:35;10.60;99.90
68385;DHT22;55336;43.062;25.626;2024-02-16T11:12:02;10.80;99.90
68385;DHT22;55336;43.062;25.626;2024-02-16T11:17:08;11.00;99.90
68385;DHT22;55336;43.062;25.626;2024-02-16T11:19:35;10.90;99.90
68385;DHT22;55336;43.062;25.626;2024-02-16T11:22:05;10.60;99.90
68385;DHT22;55336;43.062;25.626;2024-02-16T11:24:43;10.70;99.90
68385;DHT22;55336;43.062;25.626;2024-02-16T11:27:12;10.70;99.90
68385;DHT22;55336;43.062;25.626;2024-02-16T11:29:41;10.80;99.90
68385;DHT22;55336;43.062;25.626;2024-02-16T11:32:07;10.80;99.90
68385;DHT22;55336;43.062;25.626;2024-02-16T11:34:33;10.70;99.90
68385;DHT22;55336;43.062;25.626;2024-02-16T11:37:01;10.70;99.90
68385;DHT22;55336;43.062;25.626;2024-02-16T11:39:27;10.90;99.90
68385;DHT22;55336;43.062;25.626;2024-02-16T11:42:03;10.90;99.90
68385;DHT22;55336;43.062;25.626;2024-02-16T11:44:30;11.00;99.90
68385;DHT22;55336;43.062;25.626;2024-02-16T11:47:00;10.90;99.90
68385;DHT22;55336;43.062;25.626;2024-02-16T11:49:28;10.90;99.90
68385;DHT22;55336;43.062;25.626;2024-02-16T11:51:54;11.00;99.90
68385;DHT22;55336;43.062;25.626;2024-02-16T11:54:20;11.20;99.90
68385;DHT22;55336;43.062;25.626;2024-02-16T11:56:47;11.30;99.90
68385;DHT22;55336;43.062;25.626;2024-02-16T11:59:17;11.00;99.90
68385;DHT22;55336;43.062;25.626;2024-02-16T12:04:29;11.20;99.90
68385;DHT22;55336;43.062;25.626;2024-02-16T12:06:57;11.20;99.90
68385;DHT22;55336;43.062;25.626;2024-02-16T12:09:23;11.20;99.90
68385;DHT22;55336;43.062;25.626;2024-02-16T12:11:52;11.00;99.90
68385;DHT22;55336;43.062;25.626;2024-02-16T12:14:20;11.10;99.90
68385;DHT22;55336;43.062;25.626;2024-02-16T12:16:50;11.20;99.90
68385;DHT22;55336;43.062;25.626;2024-02-16T12:19:19;11.00;99.90
68385;DHT22;55336;43.062;25.626;2024-02-16T12:21:52;10.70;99.90
68385;DHT22;55336;43.062;25.626;2024-02-16T12:24:18;11.00;99.90
68385;DHT22;55336;43.062;25.626;2024-02-16T12:26:44;11.10;99.90
68385;DHT22;55336;43.062;25.626;2024-02-16T12:29:10;10.90;99.90
68385;DHT22;55336;43.062;25.626;2024-02-16T12:31:39;11.00;99.90
68385;DHT22;55336;43.062;25.626;2024-02-16T12:34:09;10.90;99.90
68385;DHT22;55336;43.062;25.626;2024-02-16T12:36:45;11.00;99.90
68385;DHT22;55336;43.062;25.626;2024-02-16T12:39:29;11.00;99.90
68385;DHT22;55336;43.062;25.626;2024-02-16T12:41:55;10.90;99.90
68385;DHT22;55336;43.062;25.626;2024-02-16T12:44:23;10.90;99.90
68385;DHT22;55336;43.062;25.626;2024-02-16T12:46:49;11.00;99.90
68385;DHT22;55336;43.062;25.626;2024-02-16T12:49:24;11.10;99.90
68385;DHT22;55336;43.062;25.626;2024-02-16T12:51:51;10.90;99.90
68385;DHT22;55336;43.062;25.626;2024-02-16T12:54:18;10.80;99.90
68385;DHT22;55336;43.062;25.626;2024-02-16T12:56:48;10.60;99.90
68385;DHT22;55336;43.062;25.626;2024-02-16T12:59:15;11.00;99.90
68385;DHT22;55336;43.062;25.626;2024-02-16T13:01:41;11.20;99.90
68385;DHT22;55336;43.062;25.626;2024-02-16T13:04:08;11.20;99.90
68385;DHT22;55336;43.062;25.626;2024-02-16T13:06:34;11.00;99.90
68385;DHT22;55336;43.062;25.626;2024-02-16T13:09:00;10.90;99.90
68385;DHT22;55336;43.062;25.626;2024-02-16T13:11:26;11.00;99.90
68385;DHT22;55336;43.062;25.626;2024-02-16T13:13:52;11.20;99.90
68385;DHT22;55336;43.062;25.626;2024-02-16T13:16:18;11.30;99.90
68385;DHT22;55336;43.062;25.626;2024-02-16T13:18:44;11.10;99.90
68385;DHT22;55336;43.062;25.626;2024-02-16T13:21:10;11.40;99.90
68385;DHT22;55336;43.062;25.626;2024-02-16T13:23:36;11.60;99.90
68385;DHT22;55336;43.062;25.626;2024-02-16T13:26:02;11.60;99.90
68385;DHT22;55336;43.062;25.626;2024-02-16T13:28:29;11.80;99.90
68385;DHT22;55336;43.062;25.626;2024-02-16T13:30:55;12.10;99.90
68385;DHT22;55336;43.062;25.626;2024-02-16T13:33:21;12.20;99.90
68385;DHT22;55336;43.062;25.626;2024-02-16T13:35:47;12.10;99.90
68385;DHT22;55336;43.062;25.626;2024-02-16T13:38:13;11.90;99.90
68385;DHT22;55336;43.062;25.626;2024-02-16T13:40:40;11.70;99.90
68385;DHT22;55336;43.062;25.626;2024-02-16T13:43:06;11.40;99.90
68385;DHT22;55336;43.062;25.626;2024-02-16T13:45:48;11.40;99.90
68385;DHT22;55336;43.062;25.626;2024-02-16T13:48:15;10.90;99.90
68385;DHT22;55336;43.062;25.626;2024-02-16T13:50:43;11.00;99.90
68385;DHT22;55336;43.062;25.626;2024-02-16T13:53:09;11.20;99.90
68385;DHT22;55336;43.062;25.626;2024-02-16T13:55:34;11.30;99.90
68385;DHT22;55336;43.062;25.626;2024-02-16T13:58:00;11.30;99.90
68385;DHT22;55336;43.062;25.626;2024-02-16T14:00:26;11.40;99.90
68385;DHT22;55336;43.062;25.626;2024-02-16T14:02:52;11.40;99.90
68385;DHT22;55336;43.062;25.626;2024-02-16T14:05:18;11.30;99.90
68385;DHT22;55336;43.062;25.626;2024-02-16T14:07:43;11.20;99.90
68385;DHT22;55336;43.062;25.626;2024-02-16T14:10:09;11.10;99.90
68385;DHT22;55336;43.062;25.626;2024-02-16T14:12:35;11.00;99.90
68385;DHT22;55336;43.062;25.626;2024-02-16T14:15:02;11.00;99.90
68385;DHT22;55336;43.062;25.626;2024-02-16T14:17:28;11.00;99.90
68385;DHT22;55336;43.062;25.626;2024-02-16T14:19:54;11.00;99.90
68385;DHT22;55336;43.062;25.626;2024-02-16T14:22:19;11.00;99.90
68385;DHT22;55336;43.062;25.626;2024-02-16T14:24:45;11.00;99.90
68385;DHT22;55336;43.062;25.626;2024-02-16T14:27:11;10.90;99.90
68385;DHT22;55336;43.062;25.626;2024-02-16T14:29:36;10.90;99.90
68385;DHT22;55336;43.062;25.626;2024-02-16T14:32:02;10.80;99.90
68385;DHT22;55336;43.062;25.626;2024-02-16T14:34:28;10.80;99.90
68385;DHT22;55336;43.062;25.626;2024-02-16T14:36:54;10.70;99.90
68385;DHT22;55336;43.062;25.626;2024-02-16T14:39:20;10.70;99.90
68385;DHT22;55336;43.062;25.626;2024-02-16T14:41:47;10.70;99.90
68385;DHT22;55336;43.062;25.626;2024-02-16T14:44:12;10.70;99.90
68385;DHT22;55336;43.062;25.626;2024-02-16T14:46:38;10.70;99.90
68385;DHT22;55336;43.062;25.626;2024-02-16T14:49:04;10.70;99.90
68385;DHT22;55336;43.062;25.626;2024-02-16T14:51:34;10.70;99.90
68385;DHT22;55336;43.062;25.626;2024-02-16T14:54:01;10.70;99.90
68385;DHT22;55336;43.062;25.626;2024-02-16T14:56:29;10.70;99.90
68385;DHT22;55336;43.062;25.626;2024-02-16T14:58:54;10.70;99.90
68385;DHT22;55336;43.062;25.626;2024-02-16T15:01:21;10.70;99.90
68385;DHT22;55336;43.062;25.626;2024-02-16T15:03:47;10.60;99.90
68385;DHT22;55336;43.062;25.626;2024-02-16T15:06:13;10.50;99.90
68385;DHT22;55336;43.062;25.626;2024-02-16T15:08:39;10.40;99.90
68385;DHT22;55336;43.062;25.626;2024-02-16T15:11:05;10.40;99.90
68385;DHT22;55336;43.062;25.626;2024-02-16T15:13:30;10.40;99.90
68385;DHT22;55336;43.062;25.626;2024-02-16T15:15:57;10.30;99.90
68385;DHT22;55336;43.062;25.626;2024-02-16T15:18:22;10.30;99.90
68385;DHT22;55336;43.062;25.626;2024-02-16T15:20:48;10.30;99.90
68385;DHT22;55336;43.062;25.626;2024-02-16T15:23:14;10.30;99.90
68385;DHT22;55336;43.062;25.626;2024-02-16T15:25:40;10.20;99.90
68385;DHT22;55336;43.062;25.626;2024-02-16T15:28:06;10.20;99.90